Time;durP1;ratioP1;P1;durP2;ratioP2;P2;SDS_P1;SDS_P2;PMS_P1;PMS_P2;Temp;Humidity;BMP_temperature;BMP_pressure;BME280_temperature;BME280_humidity;BME280_pressure;Samples;Min_cycle;Max_cycle;Signal;HPM_P1;HPM_P2
2022/06/03 00:00:47;;;;;;;6.40;5.90;;;13.60;52.40;;;;;;2611168;39;20793;-77
2022/06/03 00:03:32;;;;;;;7.93;7.27;;;13.60;52.50;;;;;;2611137;54;20419;-76
2022/06/03 00:06:35;;;;;;;7.57;6.20;;;13.60;51.70;;;;;;2611449;54;20418;-80
2022/06/03 00:09:33;;;;;;;5.97;5.47;;;13.50;53.00;;;;;;2611250;54;20435;-79
2022/06/03 00:12:14;;;;;;;6.50;6.00;;;13.50;55.10;;;;;;2611506;54;20415;-77
2022/06/03 00:14:58;;;;;;;6.57;5.83;;;13.40;57.30;;;;;;2612465;39;21024;-79
2022/06/03 00:17:46;;;;;;;6.43;5.90;;;13.40;58.90;;;;;;2612375;54;21026;-80
2022/06/03 00:20:28;;;;;;;4.90;4.50;;;13.40;60.20;;;;;;2611854;54;20636;-78
2022/06/03 00:22:53;;;;;;;5.10;4.77;;;13.30;62.70;;;;;;2612644;54;20434;-77
2022/06/03 00:25:31;;;;;;;7.57;6.10;;;13.20;66.80;;;;;;2612440;54;20939;-77
2022/06/03 00:28:16;;;;;;;7.07;6.43;;;13.10;70.50;;;;;;2613034;39;20528;-77
2022/06/03 00:30:51;;;;;;;7.27;6.60;;;13.10;74.10;;;;;;2614004;39;20771;-80
2022/06/03 00:33:43;;;;;;;6.27;5.67;;;12.90;80.30;;;;;;2613252;39;20978;-80
2022/06/03 00:36:49;;;;;;;5.40;5.00;;;13.00;80.90;;;;;;2611663;54;21014;-74
2022/06/03 00:39:15;;;;;;;12.27;8.33;;;12.90;81.10;;;;;;2611562;54;20511;-77
2022/06/03 00:41:59;;;;;;;6.10;5.57;;;13.10;81.30;;;;;;2612135;54;20411;-77
2022/06/03 00:44:54;;;;;;;5.87;5.30;;;13.10;77.80;;;;;;2613135;39;20535;-80
2022/06/03 00:47:46;;;;;;;7.00;5.50;;;13.00;78.50;;;;;;2612811;54;20438;-80
2022/06/03 00:50:38;;;;;;;6.33;5.73;;;13.00;78.40;;;;;;2612337;54;21010;-76
2022/06/03 00:53:31;;;;;;;8.40;6.30;;;12.90;82.80;;;;;;2610441;54;20427;-76
2022/06/03 00:56:32;;;;;;;6.83;6.23;;;12.80;88.50;;;;;;2611991;54;20447;-75
2022/06/03 00:59:07;;;;;;;6.73;6.03;;;12.60;92.60;;;;;;2611848;54;20438;-75
2022/06/03 01:01:51;;;;;;;6.27;5.70;;;12.60;94.20;;;;;;2612666;54;20387;-77
2022/06/03 01:04:17;;;;;;;6.20;5.70;;;12.60;95.20;;;;;;2612072;46;21146;-77
2022/06/03 01:07:23;;;;;;;6.80;6.23;;;12.60;97.10;;;;;;2613163;54;20416;-77
2022/06/03 01:10:34;;;;;;;5.30;4.90;;;12.50;99.10;;;;;;2613109;39;20782;-76
2022/06/03 01:13:39;;;;;;;7.00;6.50;;;12.40;99.90;;;;;;2611143;54;20423;-76
2022/06/03 01:16:17;;;;;;;8.03;7.33;;;12.20;99.90;;;;;;2611887;47;20435;-75
2022/06/03 01:19:09;;;;;;;6.37;5.87;;;12.10;99.90;;;;;;2611739;54;20439;-75
2022/06/03 01:21:54;;;;;;;6.20;5.70;;;12.00;99.90;;;;;;2611323;54;20419;-76
2022/06/03 01:25:04;;;;;;;6.63;6.03;;;12.10;99.90;;;;;;2612801;47;20442;-80
2022/06/03 01:27:37;;;;;;;7.20;6.50;;;12.10;99.90;;;;;;2615044;39;20798;-80
2022/06/03 01:30:12;;;;;;;5.90;5.40;;;12.00;99.90;;;;;;2614398;54;20543;-79
2022/06/03 01:32:47;;;;;;;6.27;5.77;;;12.00;99.90;;;;;;2617799;51;20427;-79
2022/06/03 01:35:13;;;;;;;6.20;5.60;;;12.00;99.90;;;;;;2615311;54;20417;-76
2022/06/03 01:38:21;;;;;;;7.00;6.40;;;12.10;99.90;;;;;;2613819;39;20809;-76
2022/06/03 01:41:08;;;;;;;6.37;5.77;;;12.00;99.90;;;;;;2612762;54;20190;-75
2022/06/03 01:43:54;;;;;;;7.70;7.00;;;12.00;99.90;;;;;;2613065;54;20418;-77
2022/06/03 01:46:28;;;;;;;5.70;5.17;;;11.90;99.90;;;;;;2613885;54;20391;-79
2022/06/03 01:48:57;;;;;;;6.50;6.00;;;11.90;99.90;;;;;;2614636;54;20508;-79
2022/06/03 01:51:23;;;;;;;6.70;6.17;;;11.80;99.90;;;;;;2617263;54;20415;-78
2022/06/03 01:53:57;;;;;;;7.27;6.57;;;11.80;99.90;;;;;;2614975;54;20418;-79
2022/06/03 01:56:45;;;;;;;10.50;6.77;;;11.70;99.90;;;;;;2613585;54;20220;-76
2022/06/03 01:59:33;;;;;;;7.77;6.97;;;11.60;99.90;;;;;;2613438;54;20416;-79
2022/06/03 02:02:23;;;;;;;7.00;6.40;;;11.70;99.90;;;;;;2615949;46;20435;-80
2022/06/03 02:05:25;;;;;;;7.40;6.80;;;11.60;99.90;;;;;;2613861;54;20427;-80
2022/06/03 02:08:29;;;;;;;6.87;6.23;;;11.60;99.90;;;;;;2615533;54;20435;-79
2022/06/03 02:11:18;;;;;;;7.27;6.67;;;11.50;99.90;;;;;;2612932;54;20423;-74
2022/06/03 02:13:52;;;;;;;7.23;6.63;;;11.40;99.90;;;;;;2610667;54;21066;-73
2022/06/03 02:17:12;;;;;;;6.70;6.20;;;11.30;99.90;;;;;;2613407;54;20461;-76
2022/06/03 02:20:00;;;;;;;7.27;6.57;;;11.30;99.90;;;;;;2613570;39;20707;-74
2022/06/03 02:22:49;;;;;;;8.17;7.27;;;11.30;99.90;;;;;;2612796;54;20503;-75
2022/06/03 02:25:43;;;;;;;7.23;6.60;;;11.30;99.90;;;;;;2613284;54;20454;-75
2022/06/03 02:28:30;;;;;;;7.03;6.40;;;11.30;99.90;;;;;;2613243;54;20411;-75
2022/06/03 02:31:20;;;;;;;7.53;6.93;;;11.20;99.90;;;;;;2612510;54;20422;-77
2022/06/03 02:33:57;;;;;;;7.23;6.53;;;11.20;99.90;;;;;;2613253;54;20439;-77
2022/06/03 02:37:00;;;;;;;8.20;7.50;;;11.20;99.90;;;;;;2613346;54;20418;-77
2022/06/03 02:39:48;;;;;;;10.97;7.90;;;11.10;99.90;;;;;;2614889;54;21359;-77
2022/06/03 02:42:22;;;;;;;8.63;7.63;;;11.10;99.90;;;;;;2614145;39;20822;-78
2022/06/03 02:45:07;;;;;;;9.70;6.70;;;11.00;99.90;;;;;;2612622;54;20443;-76
2022/06/03 02:47:50;;;;;;;7.70;7.03;;;11.00;99.90;;;;;;2612174;54;20502;-77
2022/06/03 02:50:53;;;;;;;8.33;7.40;;;10.90;99.90;;;;;;2610815;39;20688;-75
2022/06/03 02:53:44;;;;;;;7.43;6.73;;;10.80;99.90;;;;;;2610552;54;20847;-75
2022/06/03 02:56:22;;;;;;;7.07;6.37;;;10.90;99.90;;;;;;2610847;39;21199;-75
2022/06/03 02:59:09;;;;;;;6.97;6.30;;;10.80;99.90;;;;;;2611854;54;20473;-76
2022/06/03 03:01:53;;;;;;;8.30;7.27;;;10.70;99.90;;;;;;2612466;39;21030;-77
2022/06/03 03:04:19;;;;;;;7.80;7.00;;;10.70;99.90;;;;;;2611346;54;20416;-76
2022/06/03 03:06:47;;;;;;;8.10;7.30;;;10.70;99.90;;;;;;2612076;54;20582;-79
2022/06/03 03:09:58;;;;;;;8.30;6.90;;;10.60;99.90;;;;;;2613731;54;20166;-80
2022/06/03 03:12:39;;;;;;;8.03;7.30;;;10.50;99.90;;;;;;2613191;54;20443;-79
2022/06/03 03:15:33;;;;;;;10.23;8.03;;;10.50;99.90;;;;;;2614376;54;20427;-76
2022/06/03 03:18:44;;;;;;;7.00;6.40;;;10.40;99.90;;;;;;2612677;54;20422;-76
2022/06/03 03:21:35;;;;;;;8.60;7.60;;;10.40;99.90;;;;;;2612990;54;20424;-80
2022/06/03 03:24:34;;;;;;;10.03;7.73;;;10.50;99.90;;;;;;2613951;54;20423;-80
2022/06/03 03:27:13;;;;;;;8.60;7.77;;;10.30;99.90;;;;;;2615186;39;20915;-79
2022/06/03 03:29:42;;;;;;;9.77;7.43;;;10.40;99.90;;;;;;2613229;54;20420;-79
2022/06/03 03:32:40;;;;;;;9.67;7.83;;;10.40;99.90;;;;;;2611573;54;20426;-77
2022/06/03 03:35:15;;;;;;;8.93;8.07;;;10.40;99.90;;;;;;2611421;54;21275;-74
2022/06/03 03:38:22;;;;;;;8.07;7.37;;;10.40;99.90;;;;;;2611827;54;20427;-76
2022/06/03 03:41:10;;;;;;;8.20;7.47;;;10.40;99.90;;;;;;2611376;54;20435;-80
2022/06/03 03:44:02;;;;;;;9.17;8.20;;;10.30;99.90;;;;;;2612570;54;20403;-79
2022/06/03 03:46:56;;;;;;;7.80;7.03;;;10.20;99.90;;;;;;2610783;54;20538;-75
2022/06/03 03:50:07;;;;;;;7.93;7.07;;;10.20;99.90;;;;;;2610493;54;20423;-75
2022/06/03 03:52:51;;;;;;;9.10;8.30;;;10.30;99.90;;;;;;2613240;47;20877;-79
2022/06/03 03:55:29;;;;;;;9.53;8.37;;;10.30;99.90;;;;;;2611962;54;21037;-79
2022/06/03 03:58:21;;;;;;;8.87;8.03;;;10.30;99.90;;;;;;2613150;54;20431;-79
2022/06/03 04:00:59;;;;;;;8.63;7.87;;;10.30;99.90;;;;;;2612517;39;20797;-74
2022/06/03 04:03:43;;;;;;;9.20;8.30;;;10.20;99.90;;;;;;2611775;54;20443;-74
2022/06/03 04:06:20;;;;;;;9.33;7.33;;;10.30;99.90;;;;;;2611564;47;20955;-73
2022/06/03 04:09:04;;;;;;;8.97;8.10;;;10.40;99.90;;;;;;2611922;54;20415;-72
2022/06/03 04:11:49;;;;;;;8.67;7.43;;;10.50;99.90;;;;;;2612533;54;20427;-79
2022/06/03 04:14:45;;;;;;;8.87;8.07;;;10.50;99.90;;;;;;2612847;54;20419;-79
2022/06/03 04:17:30;;;;;;;8.47;7.63;;;10.40;99.90;;;;;;2613257;54;20476;-79
2022/06/03 04:20:44;;;;;;;9.67;8.20;;;10.60;99.90;;;;;;2613003;54;20427;-76
2022/06/03 04:23:18;;;;;;;11.40;10.17;;;10.70;99.90;;;;;;2610382;54;20423;-77
2022/06/03 04:26:22;;;;;;;12.97;11.10;;;10.70;99.90;;;;;;2612189;39;20838;-79
2022/06/03 04:29:07;;;;;;;12.33;11.07;;;10.70;99.90;;;;;;2611722;54;20529;-80
2022/06/03 04:32:12;;;;;;;12.43;11.23;;;10.90;99.90;;;;;;2612936;47;20442;-78
2022/06/03 04:35:15;;;;;;;13.33;12.00;;;11.00;99.90;;;;;;2612525;54;20430;-79
2022/06/03 04:38:06;;;;;;;13.17;11.77;;;11.20;99.90;;;;;;2612927;54;20522;-80
2022/06/03 04:41:16;;;;;;;11.20;9.43;;;11.30;99.90;;;;;;2612942;54;20427;-73
2022/06/03 04:44:16;;;;;;;10.53;9.50;;;11.50;99.90;;;;;;2609696;54;20889;-73
2022/06/03 04:47:00;;;;;;;10.57;9.63;;;11.90;99.90;;;;;;2611532;54;20577;-77
2022/06/03 04:50:08;;;;;;;10.80;9.70;;;12.10;99.90;;;;;;2611534;54;20411;-76
2022/06/03 04:52:55;;;;;;;9.67;8.70;;;12.50;99.90;;;;;;2610187;54;20435;-77
2022/06/03 04:55:58;;;;;;;15.30;9.17;;;12.90;99.90;;;;;;2611570;54;20448;-77
2022/06/03 04:58:30;;;;;;;10.10;9.10;;;13.30;99.90;;;;;;2611859;54;20462;-76
2022/06/03 05:01:14;;;;;;;13.80;8.57;;;13.80;99.90;;;;;;2611319;54;20500;-74
2022/06/03 05:04:20;;;;;;;12.67;8.53;;;14.30;96.20;;;;;;2611595;46;20438;-74
2022/06/03 05:07:03;;;;;;;8.53;7.73;;;14.60;90.80;;;;;;2611919;54;20411;-79
2022/06/03 05:09:38;;;;;;;9.00;8.20;;;14.90;81.80;;;;;;2611621;54;21009;-80
2022/06/03 05:12:36;;;;;;;10.27;8.90;;;15.20;74.20;;;;;;2611701;54;20423;-80
2022/06/03 05:15:28;;;;;;;7.40;6.70;;;15.40;61.60;;;;;;2612363;39;20884;-76
2022/06/03 05:18:03;;;;;;;9.23;8.33;;;15.60;56.40;;;;;;2610570;39;20913;-76
2022/06/03 05:21:17;;;;;;;8.17;7.47;;;15.80;49.60;;;;;;2611067;47;20437;-82
2022/06/03 05:23:56;;;;;;;6.70;6.20;;;16.10;43.30;;;;;;2612522;46;20444;-81
2022/06/03 05:26:53;;;;;;;7.07;6.37;;;16.30;40.80;;;;;;2612907;54;20412;-76
2022/06/03 05:29:44;;;;;;;8.43;7.77;;;16.60;38.30;;;;;;2611904;54;20417;-76
2022/06/03 05:32:16;;;;;;;7.70;7.00;;;16.70;30.30;;;;;;2611824;54;20409;-76
2022/06/03 05:34:59;;;;;;;10.73;6.47;;;16.90;32.40;;;;;;2611995;54;20403;-77
2022/06/03 05:37:34;;;;;;;6.73;6.23;;;17.10;26.00;;;;;;2613041;54;20409;-79
2022/06/03 05:40:05;;;;;;;8.13;7.43;;;17.30;24.60;;;;;;2612833;54;20448;-77
2022/06/03 05:42:56;;;;;;;8.70;6.77;;;17.30;23.80;;;;;;2612824;54;20398;-80
2022/06/03 05:46:00;;;;;;;7.00;6.30;;;17.30;23.00;;;;;;2613657;54;20403;-82
2022/06/03 05:48:44;;;;;;;7.47;6.70;;;17.50;20.30;;;;;;2613125;54;20976;-81
2022/06/03 05:51:25;;;;;;;7.70;7.03;;;17.70;19.90;;;;;;2613513;54;20418;-78
2022/06/03 05:54:24;;;;;;;8.97;6.00;;;18.10;16.40;;;;;;2612986;54;20446;-79
2022/06/03 05:57:15;;;;;;;6.67;6.07;;;18.20;15.00;;;;;;2615455;39;21069;-76
2022/06/03 06:00:09;;;;;;;6.47;6.00;;;18.60;13.20;;;;;;2613667;54;20408;-78
2022/06/03 06:02:41;;;;;;;6.50;6.00;;;18.90;10.80;;;;;;2614679;54;20423;-81
2022/06/03 06:05:36;;;;;;;6.57;5.97;;;19.10;8.90;;;;;;2614841;54;20393;-79
2022/06/03 06:08:08;;;;;;;10.03;5.40;;;19.40;8.10;;;;;;2609881;54;20409;-78
2022/06/03 06:11:00;;;;;;;6.60;6.10;;;19.40;5.60;;;;;;2612618;54;20518;-82
2022/06/03 06:13:41;;;;;;;6.17;5.40;;;19.50;3.60;;;;;;2614250;54;20419;-83
2022/06/03 06:16:16;;;;;;;6.53;6.03;;;19.60;5.10;;;;;;2617086;54;20414;-78
2022/06/03 06:19:05;;;;;;;5.57;5.17;;;19.70;3.70;;;;;;2617098;54;20462;-79
2022/06/03 06:22:05;;;;;;;5.77;5.27;;;19.80;3.50;;;;;;2612860;54;20418;-75
2022/06/03 06:24:53;;;;;;;6.93;5.87;;;19.90;4.90;;;;;;2610331;54;20430;-74
2022/06/03 06:27:34;;;;;;;5.70;5.20;;;20.00;4.30;;;;;;2610397;54;20422;-75
2022/06/03 06:30:19;;;;;;;10.33;5.73;;;20.20;4.90;;;;;;2612344;39;20846;-79
2022/06/03 06:33:00;;;;;;;7.40;5.40;;;20.40;3.00;;;;;;2615012;54;20597;-78
2022/06/03 06:35:40;;;;;;;6.23;5.80;;;20.80;3.00;;;;;;2617077;54;20419;-82
2022/06/03 06:38:30;;;;;;;6.10;5.50;;;21.00;1.30;;;;;;2616975;54;21230;-81
2022/06/03 06:41:18;;;;;;;7.50;6.50;;;21.20;1.00;;;;;;2614155;54;20416;-78
2022/06/03 06:43:49;;;;;;;8.87;8.07;;;21.10;1.00;;;;;;2613102;47;20454;-79
2022/06/03 06:46:31;;;;;;;6.63;6.13;;;21.30;1.00;;;;;;2613738;54;20434;-78
2022/06/03 06:49:18;;;;;;;5.80;5.33;;;21.40;1.00;;;;;;2613333;39;20784;-77
2022/06/03 06:52:19;;;;;;;5.90;5.40;;;21.40;1.00;;;;;;2612700;54;20422;-76
2022/06/03 06:54:54;;;;;;;5.60;5.20;;;21.70;1.00;;;;;;2610728;54;20411;-76
2022/06/03 06:57:36;;;;;;;6.47;5.87;;;21.90;1.00;;;;;;2608916;54;20425;-75
2022/06/03 07:00:02;;;;;;;5.57;4.50;;;21.90;1.00;;;;;;2609837;47;20468;-75
2022/06/03 07:02:42;;;;;;;5.00;4.60;;;22.00;1.00;;;;;;2610774;54;20975;-76
2022/06/03 07:05:12;;;;;;;5.10;4.67;;;22.10;1.00;;;;;;2610262;54;20163;-82
2022/06/03 07:07:48;;;;;;;5.40;5.00;;;22.10;1.00;;;;;;2612494;39;20926;-81
2022/06/03 07:10:25;;;;;;;5.33;4.83;;;22.30;1.00;;;;;;2612810;54;20531;-79
2022/06/03 07:13:00;;;;;;;5.83;5.30;;;22.50;1.00;;;;;;2612579;54;20427;-77
2022/06/03 07:15:50;;;;;;;5.40;5.00;;;22.60;1.00;;;;;;2612056;54;20427;-81
2022/06/03 07:21:55;;;;;;;7.27;5.50;;;23.20;1.00;;;;;;2613844;54;20421;-78
2022/06/03 07:24:42;;;;;;;7.33;4.80;;;23.20;1.00;;;;;;2612573;54;20426;-77
2022/06/03 07:27:16;;;;;;;5.57;5.07;;;23.30;1.00;;;;;;2611625;54;20429;-76
2022/06/03 07:30:25;;;;;;;6.27;5.80;;;23.00;1.00;;;;;;2612527;39;21343;-76
2022/06/03 07:33:02;;;;;;;5.23;4.83;;;23.00;1.00;;;;;;2612073;54;20414;-75
2022/06/03 07:35:37;;;;;;;7.00;6.30;;;23.10;1.00;;;;;;2613561;47;20416;-80
2022/06/03 07:38:18;;;;;;;6.13;5.63;;;23.20;1.00;;;;;;2617473;39;20850;-82
2022/06/03 07:40:59;;;;;;;6.03;5.43;;;23.70;1.00;;;;;;2632623;36;20472;-80
2022/06/03 07:43:50;;;;;;;5.40;5.00;;;23.80;1.00;;;;;;2615804;54;20565;-79
2022/06/03 07:46:41;;;;;;;5.60;5.10;;;23.70;1.00;;;;;;2614107;54;20423;-78
2022/06/03 07:49:07;;;;;;;5.27;4.87;;;23.60;1.00;;;;;;2614573;54;20408;-78
2022/06/03 07:51:39;;;;;;;10.30;5.07;;;23.50;1.00;;;;;;2616240;39;20799;-77
2022/06/03 07:54:22;;;;;;;8.63;5.07;;;23.40;1.00;;;;;;2618064;54;20431;-78
2022/06/03 07:56:48;;;;;;;4.57;4.27;;;23.60;1.00;;;;;;2617750;54;20435;-77
2022/06/03 07:59:18;;;;;;;6.20;4.30;;;24.00;1.00;;;;;;2617638;47;20425;-78
2022/06/03 08:01:56;;;;;;;5.20;4.80;;;24.00;1.00;;;;;;2613608;54;20181;-76
2022/06/03 08:04:28;;;;;;;4.63;4.30;;;24.40;1.00;;;;;;2613675;54;20442;-76
2022/06/03 08:12:31;;;;;;;6.30;5.13;;;25.20;1.00;;;;;;2616746;54;20411;-79
2022/06/03 08:14:57;;;;;;;4.73;4.43;;;25.50;1.00;;;;;;2617837;54;20415;-82
2022/06/03 08:17:25;;;;;;;5.30;4.80;;;25.70;1.00;;;;;;2619038;54;20415;-82
2022/06/03 08:19:54;;;;;;;4.47;4.20;;;25.40;1.00;;;;;;2620686;54;20509;-81
2022/06/03 08:22:23;;;;;;;4.50;4.20;;;25.30;1.00;;;;;;2619869;47;20418;-81
2022/06/03 08:24:57;;;;;;;4.63;4.33;;;25.20;1.00;;;;;;2620302;54;20423;-83
2022/06/03 08:27:33;;;;;;;5.17;4.77;;;25.30;1.00;;;;;;2615912;54;20407;-78
2022/06/03 08:30:01;;;;;;;4.03;3.60;;;25.30;1.00;;;;;;2615870;54;20415;-85
2022/06/03 08:32:40;;;;;;;4.10;3.90;;;25.50;1.00;;;;;;2621335;54;20414;-84
2022/06/03 08:35:16;;;;;;;6.03;5.03;;;25.80;1.00;;;;;;2619844;54;20411;-79
2022/06/03 08:37:46;;;;;;;4.50;4.20;;;26.00;1.00;;;;;;2617545;54;20422;-78
2022/06/03 08:40:42;;;;;;;4.93;4.63;;;25.80;1.00;;;;;;2614971;47;20413;-76
2022/06/03 08:43:17;;;;;;;5.93;4.77;;;25.80;1.00;;;;;;2612821;54;20431;-76
2022/06/03 08:45:53;;;;;;;5.03;4.73;;;26.00;1.00;;;;;;2614590;54;20419;-80
2022/06/03 08:48:23;;;;;;;8.20;4.80;;;26.00;1.00;;;;;;2617176;54;20403;-81
2022/06/03 08:50:57;;;;;;;4.70;4.40;;;25.90;1.00;;;;;;2614770;54;20411;-77
2022/06/03 08:53:39;;;;;;;4.33;4.13;;;25.80;1.00;;;;;;2612041;54;20408;-76
2022/06/03 08:56:16;;;;;;;5.00;4.70;;;25.80;1.00;;;;;;2613131;54;20442;-78
2022/06/03 08:58:57;;;;;;;8.77;4.97;;;26.00;1.00;;;;;;2613758;54;20518;-79
2022/06/03 09:01:47;;;;;;;5.53;4.50;;;26.10;1.00;;;;;;2614048;39;20811;-76
2022/06/03 09:04:22;;;;;;;5.20;4.80;;;26.00;1.00;;;;;;2612710;54;20396;-76
2022/06/03 09:07:03;;;;;;;5.37;4.97;;;26.10;1.00;;;;;;2613354;54;20951;-80
2022/06/03 09:09:51;;;;;;;5.70;5.27;;;26.40;1.00;;;;;;2614317;54;20415;-78
2022/06/03 09:12:29;;;;;;;4.87;4.53;;;26.50;1.00;;;;;;2613572;54;20403;-80
2022/06/03 09:15:10;;;;;;;6.00;4.93;;;26.60;1.00;;;;;;2612638;54;20416;-82
2022/06/03 09:17:42;;;;;;;4.70;4.40;;;26.60;1.00;;;;;;2613917;46;20435;-85
2022/06/03 09:20:21;;;;;;;4.57;4.33;;;26.60;1.00;;;;;;2614183;46;20427;-76
2022/06/03 09:22:50;;;;;;;4.67;4.37;;;26.80;1.00;;;;;;2612549;46;20433;-75
2022/06/03 09:25:18;;;;;;;4.50;4.20;;;26.50;1.00;;;;;;2612760;54;20403;-78
2022/06/03 09:27:46;;;;;;;4.53;4.33;;;26.60;1.00;;;;;;2613427;54;20415;-77
2022/06/03 09:30:23;;;;;;;5.10;4.80;;;26.80;1.00;;;;;;2612168;54;20448;-80
2022/06/03 09:32:50;;;;;;;4.73;4.40;;;27.10;1.00;;;;;;2613401;54;20413;-78
2022/06/03 09:35:21;;;;;;;6.70;4.90;;;26.90;1.00;;;;;;2613479;54;20543;-77
2022/06/03 09:37:53;;;;;;;4.87;4.60;;;26.80;1.00;;;;;;2613388;54;20533;-77
2022/06/03 09:40:22;;;;;;;5.10;4.80;;;26.50;1.00;;;;;;2613691;47;20447;-78
2022/06/03 09:43:06;;;;;;;5.17;4.87;;;26.50;1.00;;;;;;2612738;54;20405;-79
2022/06/03 09:45:34;;;;;;;4.97;4.57;;;26.80;1.00;;;;;;2613374;54;20519;-83
2022/06/03 09:48:03;;;;;;;6.63;4.47;;;26.80;1.00;;;;;;2612801;54;20416;-84
2022/06/03 09:50:29;;;;;;;6.47;5.30;;;26.70;1.00;;;;;;2613173;54;20403;-76
2022/06/03 09:53:08;;;;;;;5.50;5.10;;;26.90;1.00;;;;;;2610586;54;20443;-77
2022/06/03 09:55:41;;;;;;;5.80;5.40;;;27.20;1.00;;;;;;2612197;54;20458;-79
2022/06/03 09:58:15;;;;;;;4.93;4.63;;;27.30;1.00;;;;;;2612690;54;20473;-78
2022/06/03 10:00:48;;;;;;;4.80;4.50;;;27.50;1.00;;;;;;2614237;39;20817;-83
2022/06/03 10:03:16;;;;;;;5.30;5.00;;;27.30;1.00;;;;;;2614248;54;20411;-87
2022/06/03 10:05:47;;;;;;;4.37;4.17;;;27.60;1.00;;;;;;2613501;47;20876;-80
2022/06/03 10:08:16;;;;;;;5.10;4.80;;;27.50;1.00;;;;;;2611952;46;20437;-80
2022/06/03 10:13:33;;;;;;;4.83;4.53;;;27.10;1.00;;;;;;2612809;54;20413;-78
2022/06/03 10:16:00;;;;;;;4.70;4.40;;;27.10;1.00;;;;;;2614115;54;20890;-75
2022/06/03 10:18:49;;;;;;;4.97;4.57;;;27.40;1.00;;;;;;2614667;54;20397;-77
2022/06/03 10:21:14;;;;;;;4.23;3.93;;;27.60;1.00;;;;;;2611991;46;20449;-78
2022/06/03 10:23:53;;;;;;;4.60;4.40;;;27.80;1.00;;;;;;2612800;54;20545;-77
2022/06/03 10:26:25;;;;;;;7.33;4.70;;;28.30;1.00;;;;;;2613151;54;20143;-77
2022/06/03 10:28:53;;;;;;;4.57;4.37;;;28.20;1.00;;;;;;2613188;39;21113;-77
2022/06/03 10:31:30;;;;;;;5.03;4.57;;;28.10;1.00;;;;;;2611232;54;20418;-78
2022/06/03 10:34:00;;;;;;;5.20;4.90;;;28.10;1.00;;;;;;2611598;39;21128;-79
2022/06/03 10:36:43;;;;;;;4.33;3.93;;;29.90;1.00;;;;;;2613307;54;20413;-79
2022/06/03 10:39:14;;;;;;;4.57;4.03;;;28.00;1.00;;;;;;2612451;54;20567;-79
2022/06/03 10:41:43;;;;;;;4.63;3.90;;;27.70;1.00;;;;;;2613526;54;20416;-79
2022/06/03 10:44:16;;;;;;;5.47;4.97;;;27.60;1.00;;;;;;2615773;54;20421;-80
2022/06/03 10:47:12;;;;;;;4.53;4.33;;;27.50;1.00;;;;;;2614167;54;20433;-81
2022/06/03 10:49:53;;;;;;;4.10;3.90;;;27.60;1.00;;;;;;2611936;54;20419;-79
2022/06/03 11:01:32;;;;;;;4.70;4.20;;;27.00;1.00;;;;;;2612853;54;20429;-79
2022/06/03 11:03:59;;;;;;;4.00;3.80;;;27.60;1.00;;;;;;2611602;54;20492;-79
2022/06/03 11:06:38;;;;;;;4.20;4.00;;;28.10;1.00;;;;;;2612821;31;20850;-77
2022/06/03 11:09:07;;;;;;;3.87;3.57;;;28.10;1.00;;;;;;2611976;54;20804;-78
2022/06/03 11:11:37;;;;;;;4.63;4.33;;;28.30;1.00;;;;;;2613218;46;20912;-82
2022/06/03 11:14:39;;;;;;;4.10;3.90;;;28.10;1.00;;;;;;2612964;47;20446;-79
2022/06/03 11:17:40;;;;;;;4.53;3.80;;;27.40;1.00;;;;;;2611823;47;20412;-80
2022/06/03 11:20:39;;;;;;;4.00;3.80;;;27.00;1.00;;;;;;2611814;39;20870;-80
2022/06/03 11:23:10;;;;;;;4.40;4.00;;;27.70;1.00;;;;;;2610812;54;20428;-81
2022/06/03 11:25:48;;;;;;;4.20;3.80;;;27.70;1.00;;;;;;2611483;54;20421;-84
2022/06/03 11:28:21;;;;;;;3.90;3.70;;;27.40;1.00;;;;;;2612935;47;20415;-85
2022/06/03 11:30:55;;;;;;;4.27;4.07;;;27.30;1.00;;;;;;2611545;47;20439;-79
2022/06/03 11:33:28;;;;;;;4.10;3.90;;;27.30;1.00;;;;;;2610782;54;20556;-79
2022/06/03 11:36:05;;;;;;;3.90;3.70;;;27.30;1.00;;;;;;2611830;39;20844;-78
2022/06/03 11:39:00;;;;;;;4.03;3.73;;;27.20;1.00;;;;;;2610710;54;20512;-77
2022/06/03 11:41:34;;;;;;;3.97;3.77;;;27.50;1.00;;;;;;2611003;54;20423;-81
2022/06/03 11:44:17;;;;;;;3.70;3.60;;;27.40;1.00;;;;;;2611375;54;20420;-80
2022/06/03 11:46:56;;;;;;;4.17;3.77;;;;;;;;;;2611446;39;20821;-77
2022/06/03 11:49:23;;;;;;;4.10;3.90;;;28.30;1.00;;;;;;2611626;47;20404;-77
2022/06/03 11:51:51;;;;;;;4.40;4.10;;;28.60;1.00;;;;;;2613546;54;20437;-83
2022/06/03 11:54:21;;;;;;;3.67;3.57;;;28.40;1.00;;;;;;2614892;54;20405;-82
2022/06/03 11:56:48;;;;;;;4.03;3.67;;;27.60;1.00;;;;;;2614379;54;20479;-83
2022/06/03 11:59:20;;;;;;;3.83;3.50;;;27.50;1.00;;;;;;2614379;39;21235;-83
2022/06/03 12:01:56;;;;;;;4.33;4.13;;;27.30;1.00;;;;;;2613032;54;20404;-82
2022/06/03 12:04:31;;;;;;;4.23;4.03;;;27.30;1.00;;;;;;2612461;54;20407;-78
2022/06/03 12:07:19;;;;;;;4.30;4.00;;;27.80;1.00;;;;;;2611596;39;20819;-77
2022/06/03 12:10:07;;;;;;;4.00;3.87;;;28.20;1.00;;;;;;2611932;47;20422;-79
2022/06/03 12:13:15;;;;;;;4.60;4.30;;;28.60;1.00;;;;;;2612711;54;20491;-80
2022/06/03 12:15:53;;;;;;;4.10;3.93;;;28.90;1.00;;;;;;2612465;54;20433;-77
2022/06/03 12:18:42;;;;;;;4.53;4.23;;;29.00;1.00;;;;;;2612653;54;20418;-78
2022/06/03 12:21:33;;;;;;;4.63;4.43;;;29.30;1.00;;;;;;2612831;54;20414;-74
2022/06/03 12:24:20;;;;;;;5.30;4.17;;;29.60;1.00;;;;;;2611487;54;20421;-77
2022/06/03 12:26:48;;;;;;;4.17;3.97;;;29.30;1.00;;;;;;2612810;54;20430;-79
2022/06/03 12:29:37;;;;;;;4.50;3.73;;;29.30;1.00;;;;;;2611587;47;20976;-79
2022/06/03 12:32:37;;;;;;;4.10;3.90;;;29.60;1.00;;;;;;2612277;54;20468;-77
2022/06/03 12:35:41;;;;;;;4.27;3.80;;;29.20;1.00;;;;;;2611387;54;20554;-78
2022/06/03 12:38:27;;;;;;;4.47;4.27;;;29.10;1.00;;;;;;2613766;54;20523;-79
2022/06/03 12:40:59;;;;;;;4.20;4.00;;;28.50;1.00;;;;;;2613051;54;20404;-77
2022/06/03 12:43:28;;;;;;;4.70;4.50;;;28.70;1.00;;;;;;2613131;39;20810;-76
2022/06/03 12:46:01;;;;;;;4.27;4.07;;;28.40;1.00;;;;;;2612707;54;20977;-78
2022/06/03 12:48:47;;;;;;;4.07;3.87;;;28.60;1.00;;;;;;2613498;54;21048;-78
2022/06/03 12:51:22;;;;;;;4.50;4.20;;;29.20;1.00;;;;;;2614262;46;20430;-83
2022/06/03 12:53:49;;;;;;;3.83;3.63;;;29.50;1.00;;;;;;2615052;54;20547;-82
2022/06/03 12:56:35;;;;;;;4.27;3.97;;;29.90;1.00;;;;;;2614727;54;21129;-78
2022/06/03 12:59:07;;;;;;;4.13;3.93;;;30.10;1.00;;;;;;2613413;54;20541;-77
2022/06/03 13:01:44;;;;;;;4.67;4.37;;;30.20;1.00;;;;;;2613961;54;20435;-78
2022/06/03 13:04:36;;;;;;;4.40;4.20;;;30.00;1.00;;;;;;2615520;54;20441;-79
2022/06/03 13:07:27;;;;;;;4.43;4.03;;;29.90;1.00;;;;;;2615973;46;20434;-78
2022/06/03 13:09:52;;;;;;;4.37;4.10;;;29.60;1.00;;;;;;2616123;39;20792;-81
2022/06/03 13:12:46;;;;;;;4.70;4.40;;;29.60;1.00;;;;;;2616444;39;20797;-78
2022/06/03 13:15:21;;;;;;;4.80;4.60;;;29.20;1.00;;;;;;2614381;54;20206;-78
2022/06/03 13:17:54;;;;;;;4.43;4.23;;;28.70;1.00;;;;;;2614607;54;20412;-80
2022/06/03 13:20:40;;;;;;;4.03;3.87;;;28.60;1.00;;;;;;2614149;54;20422;-79
2022/06/03 13:23:31;;;;;;;4.03;3.90;;;28.80;1.00;;;;;;2614274;54;20495;-78
2022/06/03 13:26:22;;;;;;;4.67;4.47;;;28.60;1.00;;;;;;2614772;54;20423;-77
2022/06/03 13:29:08;;;;;;;4.90;4.30;;;29.10;1.00;;;;;;2612510;54;20404;-76
2022/06/03 13:31:43;;;;;;;5.17;4.80;;;29.10;1.00;;;;;;2612787;54;20441;-79
2022/06/03 13:34:12;;;;;;;4.87;4.60;;;29.00;1.00;;;;;;2612152;54;20430;-79
2022/06/03 13:36:53;;;;;;;4.50;4.30;;;29.50;1.00;;;;;;2611512;46;20422;-75
2022/06/03 13:39:19;;;;;;;4.53;4.23;;;29.70;1.00;;;;;;2611529;47;21579;-76
2022/06/03 13:45:03;;;;;;;4.77;4.47;;;29.30;1.00;;;;;;2612090;39;20419;-75
2022/06/03 13:47:34;;;;;;;4.10;3.90;;;29.30;1.00;;;;;;2613600;31;21002;-79
2022/06/03 13:50:13;;;;;;;5.17;4.83;;;29.10;1.00;;;;;;2612416;54;20425;-80
2022/06/03 13:53:00;;;;;;;4.80;4.50;;;28.70;1.00;;;;;;2615923;39;20835;-85
2022/06/03 13:55:35;;;;;;;5.10;4.80;;;28.40;1.00;;;;;;2614533;54;20401;-78
2022/06/03 13:58:34;;;;;;;4.43;4.23;;;28.10;1.00;;;;;;2612717;54;21232;-79
2022/06/03 14:01:07;;;;;;;4.63;4.43;;;27.70;1.00;;;;;;2614259;46;20428;-78
2022/06/03 14:03:52;;;;;;;4.90;4.60;;;27.40;1.00;;;;;;2613686;54;21000;-80
2022/06/03 14:06:29;;;;;;;4.13;3.93;;;27.20;1.00;;;;;;2616022;54;20426;-80
2022/06/03 14:09:21;;;;;;;5.60;5.20;;;27.10;1.00;;;;;;2616085;39;20552;-78
2022/06/03 14:12:07;;;;;;;4.53;4.20;;;26.90;1.00;;;;;;2616825;54;20404;-85
2022/06/03 14:14:45;;;;;;;5.00;4.10;;;26.80;1.00;;;;;;2615205;54;21164;-87
2022/06/03 14:17:33;;;;;;;4.27;4.07;;;27.10;1.00;;;;;;2612761;54;20408;-78
2022/06/03 14:20:11;;;;;;;5.37;5.07;;;27.00;1.00;;;;;;2612005;54;20426;-78
2022/06/03 14:22:43;;;;;;;4.87;4.57;;;27.30;1.00;;;;;;2611875;54;20578;-79
2022/06/03 14:25:25;;;;;;;5.17;4.70;;;27.40;1.00;;;;;;2612423;54;20434;-79
2022/06/03 14:28:01;;;;;;;5.03;4.63;;;27.40;1.00;;;;;;2612571;47;20433;-79
2022/06/03 14:30:30;;;;;;;4.20;4.00;;;27.50;1.00;;;;;;2614699;54;20435;-79
2022/06/03 14:32:58;;;;;;;4.33;4.13;;;27.40;1.00;;;;;;2612540;54;20510;-80
2022/06/03 14:35:27;;;;;;;5.07;4.57;;;27.30;1.00;;;;;;2613843;54;20466;-84